Arcadia, Michigan
Current Conditions -  °F | °C
As of 6:55 PM on Saturday 22 Nov 2014 (Local Time) from KFKS Reporting Station
Haze Haze  
Wind Chill:   Ceiling: 200
Heat Index:   Visibility: 3mi
Dew Point:   Wind: 14mph
Humidity: 97%   Direction: 230°SW
Pressure: 29.79"   Gusts: 20mph
Location:  44.49°N, 86.23°W
Report Text: KFKS 222355Z AUTO 23012G17KT 3SM BR OVC002 06/06 A2979 RMK AO2 T00590055 10059 20043
Loading
Personal Weather Stations






























Interactive Weather Map New forecast layout! Learn more

10-Day Weather Forecast

Advertisements
Track Severe Weather on mobile